createdAt,value
2023-10-08T00:02:23.320Z,44.96
2023-10-08T00:05:26.046Z,45.33
2023-10-08T00:08:27.925Z,45.46
2023-10-08T00:11:30.544Z,45.80
2023-10-08T00:14:44.966Z,45.85
2023-10-08T00:17:47.204Z,45.78
2023-10-08T00:20:56.088Z,45.72
2023-10-08T00:24:00.167Z,45.51
2023-10-08T00:27:03.722Z,45.60
2023-10-08T00:30:14.757Z,45.53
2023-10-08T00:33:17.970Z,45.63
2023-10-08T00:36:20.909Z,45.88
2023-10-08T00:39:25.349Z,45.94
2023-10-08T00:42:29.617Z,45.95
2023-10-08T00:45:31.771Z,45.81
2023-10-08T00:48:37.200Z,46.20
2023-10-08T00:52:00.241Z,46.15
2023-10-08T00:55:02.066Z,45.97
2023-10-08T00:58:12.901Z,45.83
2023-10-08T01:01:17.724Z,45.72
2023-10-08T01:04:29.049Z,45.89
2023-10-08T01:07:31.490Z,45.67
2023-10-08T01:10:33.657Z,45.97
2023-10-08T01:13:43.991Z,45.83
2023-10-08T01:16:48.168Z,46.30
2023-10-08T01:19:57.822Z,46.38
2023-10-08T01:22:59.771Z,46.68
2023-10-08T01:26:16.181Z,46.75
2023-10-08T01:29:20.746Z,46.84
2023-10-08T01:32:25.777Z,46.96
2023-10-08T01:35:27.577Z,47.18
2023-10-08T01:38:30.300Z,47.20
2023-10-08T01:41:32.222Z,47.52
2023-10-08T01:44:36.246Z,47.94
2023-10-08T01:47:38.073Z,47.73
2023-10-08T01:50:40.027Z,48.07
2023-10-08T01:53:42.501Z,48.24
2023-10-08T01:56:44.718Z,48.77
2023-10-08T01:59:46.799Z,48.92
2023-10-08T02:02:51.377Z,49.19
2023-10-08T02:05:54.883Z,49.65
2023-10-08T02:08:57.080Z,49.49
2023-10-08T02:11:59.653Z,49.79
2023-10-08T02:15:04.145Z,49.35
2023-10-08T02:18:06.294Z,49.73
2023-10-08T02:21:11.680Z,50.10
2023-10-08T02:24:13.841Z,50.31
2023-10-08T02:27:16.402Z,50.99
2023-10-08T02:30:19.067Z,51.24
2023-10-08T02:33:21.466Z,50.24
2023-10-08T02:36:23.441Z,50.62
2023-10-08T02:39:28.719Z,49.53
2023-10-08T02:42:30.501Z,49.51
2023-10-08T02:45:32.346Z,49.41
2023-10-08T02:48:36.224Z,49.02
2023-10-08T02:51:42.448Z,49.26
2023-10-08T02:54:44.408Z,49.54
2023-10-08T02:57:46.191Z,49.44
2023-10-08T03:00:49.412Z,49.77
2023-10-08T03:03:52.379Z,49.77
2023-10-08T03:06:56.368Z,50.01
2023-10-08T03:10:07.850Z,49.98
2023-10-08T03:13:12.072Z,49.58
2023-10-08T03:16:15.132Z,49.58
2023-10-08T03:19:20.584Z,49.63
2023-10-08T03:22:22.339Z,49.73
2023-10-08T03:25:25.761Z,49.67
2023-10-08T03:28:35.739Z,49.30
2023-10-08T03:32:03.480Z,49.50
2023-10-08T03:35:06.197Z,49.17
2023-10-08T03:38:22.754Z,49.51
2023-10-08T03:41:31.509Z,49.67
2023-10-08T03:44:33.297Z,49.12
2023-10-08T03:47:35.154Z,49.26
2023-10-08T03:50:44.462Z,49.35
2023-10-08T03:53:59.835Z,49.29
2023-10-08T03:57:02.223Z,49.13
2023-10-08T04:00:08.962Z,49.60
2023-10-08T04:03:12.826Z,49.46
2023-10-08T04:06:17.492Z,49.42
2023-10-08T04:09:21.957Z,49.51
2023-10-08T04:12:23.696Z,49.56
2023-10-08T04:15:25.442Z,49.72
2023-10-08T04:18:27.978Z,49.33
2023-10-08T04:21:30.018Z,49.24
2023-10-08T04:24:35.733Z,49.42
2023-10-08T04:27:37.683Z,49.63
2023-10-08T04:30:42.106Z,49.87
2023-10-08T04:33:45.651Z,50.08
2023-10-08T04:36:47.519Z,49.78
2023-10-08T04:39:55.763Z,49.70
2023-10-08T04:43:03.124Z,49.96
2023-10-08T04:46:23.048Z,50.08
2023-10-08T04:49:24.814Z,50.27
2023-10-08T04:52:28.915Z,50.03
2023-10-08T04:55:30.762Z,50.02
2023-10-08T04:58:41.555Z,50.40
2023-10-08T05:01:49.038Z,49.81
2023-10-08T05:05:10.340Z,49.64
2023-10-08T05:08:26.153Z,49.47
2023-10-08T05:11:46.558Z,48.83
2023-10-08T05:18:14.188Z,49.01
2023-10-08T05:21:26.934Z,48.75
2023-10-08T05:24:39.460Z,48.83
2023-10-08T05:27:49.058Z,48.81
2023-10-08T05:31:12.901Z,48.89
2023-10-08T05:34:25.058Z,49.03
2023-10-08T05:37:33.277Z,49.06
2023-10-08T05:40:54.469Z,49.14
2023-10-08T05:44:14.808Z,49.63
2023-10-08T05:47:35.320Z,49.72
2023-10-08T05:50:40.762Z,50.09
2023-10-08T05:53:45.591Z,50.09
2023-10-08T05:57:07.922Z,49.68
2023-10-08T06:00:09.804Z,49.96
2023-10-08T06:03:11.697Z,51.17
2023-10-08T06:06:16.386Z,50.95
2023-10-08T06:14:01.083Z,52.02
2023-10-08T06:17:24.875Z,51.88
2023-10-08T06:20:40.564Z,52.08
2023-10-08T06:23:43.778Z,51.80
2023-10-08T06:26:49.860Z,52.10
2023-10-08T06:29:51.930Z,52.15
2023-10-08T06:32:58.394Z,52.41
2023-10-08T06:36:06.800Z,52.34
2023-10-08T06:39:13.393Z,53.02
2023-10-08T06:42:16.966Z,52.69
2023-10-08T06:45:19.628Z,52.56
2023-10-08T06:48:24.699Z,52.76
2023-10-08T06:51:27.255Z,52.98
2023-10-08T06:54:32.760Z,53.02
2023-10-08T06:57:39.390Z,52.92
2023-10-08T07:00:48.403Z,52.79
2023-10-08T07:04:04.431Z,52.43
2023-10-08T07:07:10.694Z,52.31
2023-10-08T07:10:13.206Z,51.80
2023-10-08T07:13:18.621Z,51.91
2023-10-08T07:16:22.224Z,51.79
2023-10-08T07:19:33.861Z,51.94
2023-10-08T07:22:35.737Z,52.19
2023-10-08T07:25:40.548Z,51.94
2023-10-08T07:28:42.599Z,51.90
2023-10-08T07:31:53.382Z,51.89
2023-10-08T07:34:58.983Z,51.89
2023-10-08T07:38:00.801Z,51.59
2023-10-08T07:41:02.590Z,51.35
2023-10-08T07:44:06.246Z,51.01
2023-10-08T07:47:16.499Z,51.30
2023-10-08T07:50:18.555Z,51.17
2023-10-08T07:53:20.422Z,51.11
2023-10-08T07:56:22.314Z,51.11
2023-10-08T07:59:25.817Z,51.60
2023-10-08T08:02:28.431Z,51.60
2023-10-08T08:05:30.322Z,51.40
2023-10-08T08:08:32.123Z,50.96
2023-10-08T08:11:38.027Z,50.98
2023-10-08T08:14:42.737Z,51.14
2023-10-08T08:17:45.987Z,51.44
2023-10-08T08:20:49.343Z,51.70
2023-10-08T08:23:51.486Z,52.55
2023-10-08T08:27:03.311Z,51.42
2023-10-08T08:30:11.950Z,51.23
2023-10-08T08:33:15.417Z,51.22
2023-10-08T08:36:18.446Z,51.49
2023-10-08T08:39:37.684Z,51.92
2023-10-08T08:42:39.974Z,52.08
2023-10-08T08:45:41.805Z,52.21
2023-10-08T08:48:47.845Z,52.75
2023-10-08T08:51:54.573Z,52.96
2023-10-08T08:54:56.460Z,53.21
2023-10-08T08:57:58.328Z,52.79
2023-10-08T09:01:01.449Z,53.45
2023-10-08T09:04:06.413Z,54.08
2023-10-08T09:07:09.171Z,55.05
2023-10-08T09:10:13.539Z,55.17
2023-10-08T09:13:16.535Z,55.79
2023-10-08T09:16:18.985Z,56.35
2023-10-08T09:19:23.500Z,57.24
2023-10-08T09:22:26.923Z,57.36
2023-10-08T09:25:30.801Z,57.95
2023-10-08T09:28:35.790Z,58.56
2023-10-08T09:31:39.073Z,58.91
2023-10-08T09:34:41.903Z,59.07
2023-10-08T09:37:45.709Z,59.70
2023-10-08T09:40:47.758Z,59.26
2023-10-08T09:43:49.868Z,59.30
2023-10-08T09:47:08.613Z,59.61
2023-10-08T09:50:14.064Z,60.79
2023-10-08T09:53:21.038Z,62.01
2023-10-08T09:56:24.207Z,62.45
2023-10-08T09:59:29.237Z,63.21
2023-10-08T10:02:32.674Z,63.04
2023-10-08T10:05:39.141Z,63.35
2023-10-08T10:08:43.630Z,63.32
2023-10-08T10:11:53.239Z,63.18
2023-10-08T10:14:57.349Z,63.13
2023-10-08T10:18:29.979Z,63.05
2023-10-08T10:21:34.150Z,63.35
2023-10-08T10:24:39.230Z,63.08
2023-10-08T10:27:40.992Z,63.76
2023-10-08T10:30:43.287Z,63.59
2023-10-08T10:33:47.413Z,63.18
2023-10-08T10:36:56.890Z,63.19
2023-10-08T10:40:02.237Z,62.71
2023-10-08T10:43:07.898Z,61.13
2023-10-08T10:46:28.672Z,59.10
2023-10-08T10:49:33.821Z,57.93
2023-10-08T10:52:54.379Z,57.06
2023-10-08T10:56:10.496Z,57.41
2023-10-08T10:59:28.277Z,57.64
2023-10-08T11:02:32.889Z,57.57
2023-10-08T11:05:38.607Z,56.13
2023-10-08T11:08:50.201Z,56.57
2023-10-08T11:11:55.998Z,56.19
2023-10-08T11:14:58.596Z,55.93
2023-10-08T11:18:01.131Z,56.17
2023-10-08T11:21:16.350Z,56.84
2023-10-08T11:24:34.420Z,57.32
2023-10-08T11:27:39.788Z,58.03
2023-10-08T11:30:43.584Z,58.89
2023-10-08T11:34:08.636Z,58.87
2023-10-08T11:37:21.231Z,59.15
2023-10-08T11:40:30.351Z,58.87
2023-10-08T11:43:36.830Z,59.37
2023-10-08T11:46:41.610Z,59.11
2023-10-08T11:49:49.113Z,58.99
2023-10-08T11:52:51.090Z,58.69
2023-10-08T11:55:57.704Z,58.28
2023-10-08T11:59:01.416Z,57.40
2023-10-08T12:02:06.324Z,55.81
2023-10-08T12:05:08.968Z,55.99
2023-10-08T12:08:13.138Z,55.33
2023-10-08T12:11:15.360Z,54.74
2023-10-08T12:14:17.179Z,54.03
2023-10-08T12:17:19.898Z,52.00
2023-10-08T12:20:24.939Z,52.32
2023-10-08T12:23:27.076Z,51.01
2023-10-08T12:26:29.308Z,51.23
2023-10-08T12:29:34.203Z,50.86
2023-10-08T12:32:38.646Z,49.97
2023-10-08T12:35:45.606Z,49.92
2023-10-08T12:38:49.119Z,50.04
2023-10-08T12:41:54.650Z,50.36
2023-10-08T12:44:59.031Z,50.19
2023-10-08T12:48:01.015Z,50.08
2023-10-08T12:51:06.281Z,50.24
2023-10-08T12:54:09.089Z,50.78
2023-10-08T12:57:11.156Z,50.32
2023-10-08T13:00:13.773Z,50.89
2023-10-08T13:03:24.382Z,51.00
2023-10-08T13:06:30.525Z,50.82
2023-10-08T13:09:32.761Z,50.79
2023-10-08T13:12:35.377Z,50.23
2023-10-08T13:15:37.437Z,50.03
2023-10-08T13:18:39.500Z,49.92
2023-10-08T13:21:41.586Z,49.80
2023-10-08T13:24:43.589Z,49.38
2023-10-08T13:27:45.529Z,50.03
2023-10-08T13:30:48.285Z,49.97
2023-10-08T13:33:53.161Z,50.26
2023-10-08T13:36:55.235Z,49.95
2023-10-08T13:39:57.062Z,50.02
2023-10-08T13:42:59.610Z,49.42
2023-10-08T13:46:13.765Z,49.76
2023-10-08T13:49:17.773Z,49.45
2023-10-08T13:52:21.466Z,50.05
2023-10-08T13:55:26.397Z,49.92
2023-10-08T13:58:32.435Z,49.34
2023-10-08T14:01:35.837Z,49.75
2023-10-08T14:04:41.513Z,50.03
2023-10-08T14:07:45.713Z,49.78
2023-10-08T14:10:49.585Z,49.63
2023-10-08T14:13:53.024Z,49.88
2023-10-08T14:16:55.585Z,49.86
2023-10-08T14:20:08.208Z,49.74
2023-10-08T14:23:10.078Z,49.34
2023-10-08T14:26:12.041Z,48.67
2023-10-08T14:29:16.606Z,49.44
2023-10-08T14:32:21.012Z,49.25
2023-10-08T14:35:41.677Z,49.70
2023-10-08T14:39:02.374Z,49.41
2023-10-08T14:42:22.847Z,49.89
2023-10-08T14:45:28.811Z,49.74
2023-10-08T14:48:31.335Z,49.37
2023-10-08T14:51:33.148Z,49.21
2023-10-08T14:54:35.195Z,49.49
2023-10-08T14:57:37.163Z,49.15
2023-10-08T15:00:40.434Z,48.87
2023-10-08T15:03:42.905Z,48.08
2023-10-08T15:06:44.954Z,47.96
2023-10-08T15:09:46.781Z,48.26
2023-10-08T15:12:50.708Z,47.55
2023-10-08T15:15:55.773Z,48.22
2023-10-08T15:18:58.007Z,48.11
2023-10-08T15:22:00.156Z,47.55
2023-10-08T15:25:04.824Z,47.97
2023-10-08T15:28:07.046Z,47.64
2023-10-08T15:31:10.065Z,48.38
2023-10-08T15:34:28.622Z,48.16
2023-10-08T15:37:36.729Z,48.68
2023-10-08T15:40:38.523Z,48.67
2023-10-08T15:43:40.925Z,48.45
2023-10-08T15:46:46.671Z,48.75
2023-10-08T15:49:48.726Z,48.84
2023-10-08T15:52:51.114Z,48.35
2023-10-08T15:55:53.694Z,48.54
2023-10-08T15:58:55.811Z,48.50
2023-10-08T16:02:00.356Z,48.71
2023-10-08T16:05:04.103Z,48.67
2023-10-08T16:08:06.280Z,48.91
2023-10-08T16:11:08.076Z,49.03
2023-10-08T16:14:10.148Z,49.13
2023-10-08T16:17:16.636Z,49.13
2023-10-08T16:20:19.183Z,49.40
2023-10-08T16:23:23.618Z,49.80
2023-10-08T16:26:26.313Z,50.04
2023-10-08T16:29:28.176Z,50.54
2023-10-08T16:32:30.040Z,50.70
2023-10-08T16:35:32.280Z,51.26
2023-10-08T16:38:34.184Z,51.46
2023-10-08T16:41:36.242Z,51.68
2023-10-08T16:44:38.038Z,51.96
2023-10-08T16:47:40.214Z,52.11
2023-10-08T16:50:43.609Z,51.93
2023-10-08T16:53:47.355Z,52.45
2023-10-08T16:56:49.447Z,51.95
2023-10-08T16:59:51.626Z,52.30
2023-10-08T17:02:53.942Z,52.73
2023-10-08T17:05:56.464Z,52.79
2023-10-08T17:08:58.706Z,53.02
2023-10-08T17:12:03.337Z,52.95
2023-10-08T17:15:11.329Z,53.22
2023-10-08T17:18:14.112Z,53.29
2023-10-08T17:21:18.375Z,54.04
2023-10-08T17:24:23.456Z,53.84
2023-10-08T17:27:25.474Z,54.03
2023-10-08T17:30:28.231Z,53.84
2023-10-08T17:33:30.562Z,54.03
2023-10-08T17:36:37.431Z,53.92
2023-10-08T17:39:41.678Z,54.27
2023-10-08T17:42:43.928Z,54.23
2023-10-08T17:45:47.229Z,54.37
2023-10-08T17:48:51.557Z,53.72
2023-10-08T17:51:53.629Z,53.51
2023-10-08T17:54:57.263Z,53.57
2023-10-08T17:58:04.139Z,52.98
2023-10-08T18:01:14.772Z,53.05
2023-10-08T18:04:17.230Z,53.20
2023-10-08T18:07:20.265Z,52.52
2023-10-08T18:10:24.735Z,52.59
2023-10-08T18:13:31.509Z,52.78
2023-10-08T18:16:33.765Z,52.71
2023-10-08T18:19:40.340Z,52.27
2023-10-08T18:22:42.437Z,51.23
2023-10-08T18:25:47.325Z,51.21
2023-10-08T18:28:50.758Z,51.54
2023-10-08T18:31:52.886Z,51.34
2023-10-08T18:34:55.104Z,51.76
2023-10-08T18:38:01.276Z,51.38
2023-10-08T18:41:08.691Z,51.86
2023-10-08T18:44:11.614Z,51.59
2023-10-08T18:47:17.641Z,51.72
2023-10-08T18:50:23.411Z,51.71
2023-10-08T18:53:29.613Z,51.94
2023-10-08T18:56:31.825Z,52.12
2023-10-08T18:59:34.004Z,52.15
2023-10-08T19:02:43.205Z,51.96
2023-10-08T19:05:45.640Z,52.01
2023-10-08T19:08:48.589Z,52.02
2023-10-08T19:11:56.093Z,52.12
2023-10-08T19:15:00.499Z,51.98
2023-10-08T19:18:05.943Z,51.44
2023-10-08T19:21:09.999Z,51.73
2023-10-08T19:24:12.789Z,51.40
2023-10-08T19:27:16.153Z,50.91
2023-10-08T19:30:22.927Z,50.59
2023-10-08T19:33:26.793Z,50.15
2023-10-08T19:36:31.189Z,50.32
2023-10-08T19:39:34.599Z,50.44
2023-10-08T19:42:40.616Z,50.24
2023-10-08T19:45:42.871Z,50.73
2023-10-08T19:48:47.734Z,51.38
2023-10-08T19:51:51.157Z,51.16
2023-10-08T19:54:54.949Z,51.62
2023-10-08T19:57:57.038Z,53.46
2023-10-08T20:00:59.428Z,54.52
2023-10-08T20:04:01.735Z,54.55
2023-10-08T20:07:03.734Z,54.65
2023-10-08T20:10:07.393Z,54.64
2023-10-08T20:13:10.625Z,54.29
2023-10-08T20:16:12.681Z,53.70
2023-10-08T20:19:14.589Z,54.10
2023-10-08T20:22:17.332Z,54.10
2023-10-08T20:25:22.331Z,53.99
2023-10-08T20:28:26.904Z,54.12
2023-10-08T20:31:30.112Z,54.37
2023-10-08T20:34:32.500Z,54.83
2023-10-08T20:37:34.422Z,55.00
2023-10-08T20:40:37.192Z,55.38
2023-10-08T20:43:39.006Z,56.22
2023-10-08T20:46:41.173Z,56.40
2023-10-08T20:49:44.373Z,56.40
2023-10-08T20:52:47.457Z,57.06
2023-10-08T20:55:49.370Z,56.75
2023-10-08T20:58:51.383Z,57.28
2023-10-08T21:01:55.142Z,57.62
2023-10-08T21:04:58.001Z,57.60
2023-10-08T21:08:00.426Z,57.81
2023-10-08T21:11:04.396Z,57.14
2023-10-08T21:14:07.479Z,56.85
2023-10-08T21:17:09.263Z,55.53
2023-10-08T21:20:11.836Z,55.75
2023-10-08T21:23:13.606Z,56.12
2023-10-08T21:26:19.733Z,56.27
2023-10-08T21:29:21.988Z,56.48
2023-10-08T21:32:23.762Z,56.79
2023-10-08T21:35:26.130Z,57.32
2023-10-08T21:38:29.775Z,58.17
2023-10-08T21:41:32.360Z,58.59
2023-10-08T21:44:34.155Z,58.89
2023-10-08T21:47:36.445Z,59.23
2023-10-08T21:50:38.438Z,59.96
2023-10-08T21:53:40.238Z,60.24
2023-10-08T21:56:41.996Z,60.20
2023-10-08T21:59:44.184Z,59.81
2023-10-08T22:02:46.854Z,58.82
2023-10-08T22:05:48.923Z,58.61
2023-10-08T22:08:50.721Z,58.64
2023-10-08T22:11:52.530Z,59.59
2023-10-08T22:14:56.570Z,60.15
2023-10-08T22:18:03.062Z,59.22
2023-10-08T22:21:08.573Z,59.29
2023-10-08T22:24:13.765Z,59.46
2023-10-08T22:27:29.170Z,59.38
2023-10-08T22:30:36.747Z,59.23
2023-10-08T22:33:41.269Z,59.08
2023-10-08T22:37:02.387Z,59.02
2023-10-08T22:40:15.518Z,59.59
2023-10-08T22:43:17.662Z,59.75
2023-10-08T22:46:25.951Z,60.11
2023-10-08T22:49:28.090Z,60.25
2023-10-08T22:52:32.712Z,59.68
2023-10-08T22:55:38.569Z,60.09
2023-10-08T22:58:40.893Z,60.14
2023-10-08T23:01:48.002Z,60.30
2023-10-08T23:04:51.060Z,60.45
2023-10-08T23:07:53.197Z,61.07
2023-10-08T23:10:55.387Z,62.40
2023-10-08T23:14:04.156Z,62.94
2023-10-08T23:17:08.509Z,63.79
2023-10-08T23:20:12.739Z,64.71
2023-10-08T23:23:16.767Z,65.12
2023-10-08T23:26:18.587Z,65.16
2023-10-08T23:29:20.967Z,65.13
2023-10-08T23:32:23.012Z,67.50
2023-10-08T23:35:26.896Z,67.58
2023-10-08T23:38:33.522Z,67.06
2023-10-08T23:41:48.810Z,67.13
2023-10-08T23:44:51.215Z,67.14
2023-10-08T23:47:53.256Z,67.50
2023-10-08T23:50:55.428Z,67.75
2023-10-08T23:54:02.633Z,68.51
2023-10-08T23:57:07.951Z,68.66
